createdAt,value
2022-12-28T00:00:00.335Z,1.95
2022-12-28T00:03:42.818Z,1.77
2022-12-28T00:07:24.565Z,1.17
2022-12-28T00:11:12.272Z,1.63
2022-12-28T00:15:00.631Z,1.52
2022-12-28T00:18:42.447Z,0.75
2022-12-28T00:22:24.234Z,2.25
2022-12-28T00:26:12.500Z,1.10
2022-12-28T00:29:57.860Z,0.32
2022-12-28T00:33:39.876Z,3.38
2022-12-28T00:37:21.764Z,2.28
2022-12-28T00:41:04.052Z,1.85
2022-12-28T00:44:45.897Z,1.60
2022-12-28T00:48:27.773Z,4.32
2022-12-28T00:52:09.593Z,2.03
2022-12-28T00:55:51.328Z,0.73
2022-12-28T00:59:33.144Z,1.38
2022-12-28T01:03:15.870Z,2.63
2022-12-28T01:06:57.661Z,0.65
2022-12-28T01:10:39.927Z,0.90
2022-12-28T01:14:21.717Z,1.02
2022-12-28T01:18:03.603Z,3.42
2022-12-28T01:21:49.389Z,5.90
2022-12-28T01:25:33.148Z,2.60
2022-12-28T01:29:14.946Z,2.65
2022-12-28T01:32:59.679Z,2.13
2022-12-28T01:36:41.553Z,1.20
2022-12-28T01:40:23.293Z,2.30
2022-12-28T01:44:05.170Z,1.80
2022-12-28T01:47:49.585Z,1.90
2022-12-28T01:51:38.397Z,5.20
2022-12-28T01:55:28.142Z,1.85
2022-12-28T01:59:10.725Z,4.00
2022-12-28T02:03:03.058Z,2.78
2022-12-28T02:06:45.256Z,2.22
2022-12-28T02:10:43.136Z,1.35
2022-12-28T02:14:27.490Z,2.05
2022-12-28T02:18:10.833Z,2.70
2022-12-28T02:22:01.547Z,2.30
2022-12-28T02:26:07.678Z,4.70
2022-12-28T02:30:10.016Z,1.93
2022-12-28T02:34:07.022Z,1.15
2022-12-28T02:38:08.084Z,1.67
2022-12-28T02:41:51.651Z,0.63
2022-12-28T02:46:03.980Z,0.63
2022-12-28T02:50:04.271Z,1.00
2022-12-28T02:53:45.948Z,0.70
2022-12-28T02:57:50.601Z,1.45
2022-12-28T03:01:50.848Z,0.55
2022-12-28T03:05:58.476Z,1.00
2022-12-28T03:10:21.306Z,6.40
2022-12-28T03:14:18.628Z,1.70
2022-12-28T03:18:37.082Z,1.73
2022-12-28T03:22:38.056Z,2.33
2022-12-28T03:26:41.664Z,2.15
2022-12-28T03:30:42.731Z,2.05
2022-12-28T03:34:24.854Z,1.92
2022-12-28T03:38:10.268Z,3.33
2022-12-28T03:42:29.948Z,1.33
2022-12-28T03:46:34.274Z,4.45
2022-12-28T03:50:17.621Z,0.45
2022-12-28T03:53:59.444Z,1.02
2022-12-28T03:57:41.784Z,1.85
2022-12-28T04:01:24.018Z,0.43
2022-12-28T04:05:06.370Z,0.20
2022-12-28T04:08:48.280Z,1.70
2022-12-28T04:12:30.017Z,0.88
2022-12-28T04:16:14.193Z,3.97
2022-12-28T04:19:56.045Z,0.17
2022-12-28T04:23:37.883Z,0.38
2022-12-28T04:27:19.945Z,2.53
2022-12-28T04:31:02.881Z,1.27
2022-12-28T04:34:48.485Z,0.98
2022-12-28T04:38:30.762Z,1.88
2022-12-28T04:42:12.483Z,1.27
2022-12-28T04:45:59.266Z,5.32
2022-12-28T04:49:40.971Z,1.02
2022-12-28T04:53:23.567Z,0.63
2022-12-28T04:57:05.286Z,0.90
2022-12-28T05:00:47.072Z,1.75
2022-12-28T05:04:28.882Z,3.28
2022-12-28T05:08:10.605Z,1.00
2022-12-28T05:11:52.428Z,2.90
2022-12-28T05:15:34.157Z,3.03
2022-12-28T05:19:15.930Z,2.53
2022-12-28T05:22:57.672Z,2.03
2022-12-28T05:26:39.412Z,1.70
2022-12-28T05:30:21.203Z,4.03
2022-12-28T05:34:02.940Z,1.95
2022-12-28T05:37:44.703Z,1.27
2022-12-28T05:41:28.646Z,4.35
2022-12-28T05:45:10.856Z,3.78
2022-12-28T05:48:55.209Z,2.65
2022-12-28T05:52:38.590Z,4.82
2022-12-28T05:56:23.837Z,2.03
2022-12-28T06:00:06.329Z,5.25
2022-12-28T06:03:52.040Z,4.85
2022-12-28T06:07:33.782Z,4.35
2022-12-28T06:11:18.438Z,5.25
2022-12-28T06:15:00.252Z,2.35
2022-12-28T06:18:42.599Z,3.35
2022-12-28T06:22:24.357Z,6.70
2022-12-28T06:26:10.432Z,6.35
2022-12-28T06:29:52.159Z,2.80
2022-12-28T06:33:34.679Z,6.15
2022-12-28T06:37:16.414Z,5.78
2022-12-28T06:41:14.569Z,4.63
2022-12-28T06:44:56.730Z,9.00
2022-12-28T06:48:39.502Z,6.55
2022-12-28T06:52:21.405Z,3.15
2022-12-28T06:56:08.705Z,5.95
2022-12-28T06:59:50.456Z,4.50
2022-12-28T07:03:32.203Z,2.60
2022-12-28T07:07:13.922Z,3.85
2022-12-28T07:10:55.661Z,9.63
2022-12-28T07:14:37.424Z,6.43
2022-12-28T07:18:19.183Z,9.50
2022-12-28T07:22:00.940Z,6.25
2022-12-28T07:25:42.742Z,4.70
2022-12-28T07:29:24.504Z,5.57
2022-12-28T07:33:06.239Z,4.68
2022-12-28T07:36:49.053Z,4.72
2022-12-28T07:40:30.822Z,10.88
2022-12-28T07:44:12.605Z,6.38
2022-12-28T07:47:54.413Z,6.03
2022-12-28T07:51:38.512Z,5.82
2022-12-28T07:55:20.234Z,4.28
2022-12-28T07:59:04.525Z,4.88
2022-12-28T08:02:46.345Z,12.32
2022-12-28T08:06:29.065Z,10.52
2022-12-28T08:10:10.781Z,7.55
2022-12-28T08:13:54.778Z,10.70
2022-12-28T08:17:37.085Z,10.55
2022-12-28T08:21:28.283Z,10.13
2022-12-28T08:25:10.246Z,10.98
2022-12-28T08:28:55.144Z,11.52
2022-12-28T08:32:36.885Z,10.15
2022-12-28T08:36:18.706Z,16.23
2022-12-28T08:40:00.439Z,11.18
2022-12-28T08:43:42.494Z,9.52
2022-12-28T08:47:24.246Z,13.35
2022-12-28T08:51:11.604Z,15.48
2022-12-28T08:54:53.390Z,9.65
2022-12-28T08:58:35.172Z,8.55
2022-12-28T09:02:17.250Z,7.35
2022-12-28T09:06:03.555Z,10.00
2022-12-28T09:09:45.287Z,3.90
2022-12-28T09:13:27.643Z,6.60
2022-12-28T09:17:09.378Z,6.32
2022-12-28T09:20:52.425Z,7.40
2022-12-28T09:24:34.151Z,16.15
2022-12-28T09:28:15.924Z,11.75
2022-12-28T09:31:58.112Z,6.10
2022-12-28T09:35:39.832Z,7.47
2022-12-28T09:39:24.583Z,6.78
2022-12-28T09:43:08.963Z,8.30
2022-12-28T09:46:58.664Z,6.90
2022-12-28T09:50:40.985Z,8.60
2022-12-28T09:54:22.825Z,5.70
2022-12-28T09:58:10.869Z,8.45
2022-12-28T10:01:57.307Z,9.77
2022-12-28T10:05:39.103Z,8.00
2022-12-28T10:09:31.018Z,9.00
2022-12-28T10:13:53.772Z,9.18
2022-12-28T10:17:30.612Z,5.78
2022-12-28T10:21:13.199Z,7.18
2022-12-28T10:24:55.120Z,3.17
2022-12-28T10:28:59.516Z,6.25
2022-12-28T10:33:02.451Z,4.18
2022-12-28T10:36:45.567Z,4.72
2022-12-28T10:40:30.288Z,3.58
2022-12-28T10:44:41.574Z,2.47
2022-12-28T10:48:30.820Z,3.42
2022-12-28T10:52:15.423Z,5.35
2022-12-28T10:56:12.135Z,4.68
2022-12-28T11:00:16.187Z,2.90
2022-12-28T11:04:08.005Z,3.67
2022-12-28T11:08:03.674Z,4.45
2022-12-28T11:11:47.118Z,5.88
2022-12-28T11:15:31.634Z,1.98
2022-12-28T11:19:13.530Z,4.55
2022-12-28T11:22:55.605Z,3.67
2022-12-28T11:26:37.514Z,2.85
2022-12-28T11:30:20.428Z,1.10
2022-12-28T11:34:06.394Z,3.20
2022-12-28T11:38:02.547Z,2.95
2022-12-28T11:41:56.386Z,1.00
2022-12-28T11:45:58.840Z,1.23
2022-12-28T11:49:40.713Z,4.03
2022-12-28T11:53:44.262Z,0.57
2022-12-28T11:57:34.869Z,1.73
2022-12-28T12:01:29.476Z,3.70
2022-12-28T12:05:39.258Z,1.08
2022-12-28T12:09:30.773Z,0.47
2022-12-28T12:13:27.805Z,2.92
2022-12-28T12:21:15.116Z,0.60
2022-12-28T12:25:03.010Z,0.15
2022-12-28T12:28:49.183Z,1.52
2022-12-28T12:32:44.862Z,1.25
2022-12-28T12:37:02.696Z,1.70
2022-12-28T12:40:53.561Z,1.48
2022-12-28T12:44:57.007Z,1.40
2022-12-28T12:48:38.819Z,2.58
2022-12-28T12:52:42.061Z,2.80
2022-12-28T12:56:53.206Z,3.67
2022-12-28T13:01:02.349Z,3.00
2022-12-28T13:04:47.836Z,5.03
2022-12-28T13:08:40.717Z,5.82
2022-12-28T13:12:24.650Z,4.60
2022-12-28T13:16:12.023Z,6.70
2022-12-28T13:20:11.020Z,2.90
2022-12-28T13:23:53.344Z,4.18
2022-12-28T13:27:36.160Z,6.28
2022-12-28T13:31:21.898Z,6.55
2022-12-28T13:35:15.972Z,8.15
2022-12-28T13:39:04.138Z,6.28
2022-12-28T13:43:13.354Z,7.57
2022-12-28T13:47:04.603Z,4.63
2022-12-28T13:50:46.579Z,6.35
2022-12-28T13:54:28.433Z,4.47
2022-12-28T13:58:26.930Z,4.53
2022-12-28T14:02:17.629Z,9.80
2022-12-28T14:06:00.949Z,6.63
2022-12-28T14:09:43.613Z,8.75
2022-12-28T14:13:26.202Z,9.38
2022-12-28T14:17:11.091Z,6.38
2022-12-28T14:20:58.066Z,3.30
2022-12-28T14:25:02.688Z,5.40
2022-12-28T14:28:48.194Z,6.00
2022-12-28T14:32:30.040Z,3.63
2022-12-28T14:36:20.650Z,5.05
2022-12-28T14:40:05.317Z,6.45
2022-12-28T14:43:54.171Z,6.47
2022-12-28T14:47:46.210Z,7.95
2022-12-28T14:51:31.456Z,12.52
2022-12-28T14:55:22.433Z,8.88
2022-12-28T14:59:06.155Z,4.00
2022-12-28T15:02:49.101Z,5.20
2022-12-28T15:06:32.257Z,6.15
2022-12-28T15:10:14.129Z,9.38
2022-12-28T15:13:57.636Z,9.02
2022-12-28T15:17:39.403Z,9.50
2022-12-28T15:21:23.570Z,8.13
2022-12-28T15:25:07.168Z,6.65
2022-12-28T15:28:49.063Z,8.27
2022-12-28T15:32:30.820Z,6.63
2022-12-28T15:36:18.757Z,9.45
2022-12-28T15:40:00.612Z,12.20
2022-12-28T15:43:42.385Z,8.73
2022-12-28T15:47:24.269Z,14.18
2022-12-28T15:51:06.181Z,14.00
2022-12-28T15:54:48.088Z,11.35
2022-12-28T15:58:30.228Z,10.45
2022-12-28T16:02:12.602Z,12.05
2022-12-28T16:05:59.035Z,13.10
2022-12-28T16:09:40.915Z,13.47
2022-12-28T16:13:22.736Z,12.88
2022-12-28T16:17:04.598Z,15.68
2022-12-28T16:20:46.352Z,12.93
2022-12-28T16:24:29.056Z,21.70
2022-12-28T16:28:10.932Z,18.13
2022-12-28T16:31:52.951Z,15.75
2022-12-28T16:35:34.772Z,13.45
2022-12-28T16:39:18.238Z,17.52
2022-12-28T16:43:04.501Z,18.80
2022-12-28T16:46:47.249Z,23.70
2022-12-28T16:50:29.041Z,15.57
2022-12-28T16:54:19.913Z,19.30
2022-12-28T16:58:01.747Z,15.20
2022-12-28T17:01:44.400Z,14.75
2022-12-28T17:05:26.404Z,13.23
2022-12-28T17:09:08.563Z,14.02
2022-12-28T17:12:50.353Z,13.02
2022-12-28T17:16:32.910Z,20.40
2022-12-28T17:20:14.797Z,16.05
2022-12-28T17:23:57.080Z,14.07
2022-12-28T17:27:38.835Z,14.27
2022-12-28T17:31:22.848Z,16.25
2022-12-28T17:35:04.884Z,15.50
2022-12-28T17:38:46.683Z,13.57
2022-12-28T17:42:28.471Z,11.52
2022-12-28T17:46:10.367Z,9.23
2022-12-28T17:49:52.145Z,12.60
2022-12-28T17:53:34.260Z,9.70
2022-12-28T17:57:16.762Z,13.52
2022-12-28T18:00:58.940Z,15.52
2022-12-28T18:04:41.227Z,21.63
2022-12-28T18:08:23.705Z,17.73
2022-12-28T18:12:05.593Z,16.02
2022-12-28T18:15:47.706Z,12.85
2022-12-28T18:19:30.175Z,19.45
2022-12-28T18:23:12.363Z,22.83
2022-12-28T18:26:54.227Z,25.98
2022-12-28T18:30:36.023Z,21.02
2022-12-28T18:34:17.769Z,23.45
2022-12-28T18:37:59.851Z,28.75
2022-12-28T18:41:41.680Z,35.28
2022-12-28T18:45:23.487Z,27.75
2022-12-28T18:49:05.303Z,34.70
2022-12-28T18:52:48.350Z,36.60
2022-12-28T18:56:30.093Z,25.90
2022-12-28T19:00:12.471Z,30.67
2022-12-28T19:03:56.076Z,30.00
2022-12-28T19:07:38.100Z,26.83
2022-12-28T19:11:19.865Z,25.88
2022-12-28T19:15:01.607Z,27.83
2022-12-28T19:18:43.347Z,30.85
2022-12-28T19:22:25.128Z,28.58
2022-12-28T19:26:06.894Z,24.67
2022-12-28T19:29:50.560Z,23.58
2022-12-28T19:33:32.698Z,25.20
2022-12-28T19:37:14.753Z,27.75
2022-12-28T19:40:57.606Z,36.10
2022-12-28T19:44:39.376Z,27.25
2022-12-28T19:48:21.127Z,30.83
2022-12-28T19:52:03.267Z,28.30
2022-12-28T19:55:45.005Z,26.98
2022-12-28T19:59:26.885Z,25.52
2022-12-28T20:03:08.763Z,21.08
2022-12-28T20:06:50.747Z,23.13
2022-12-28T20:10:32.478Z,22.45
2022-12-28T20:14:19.298Z,18.92
2022-12-28T20:18:05.069Z,22.40
2022-12-28T20:21:46.907Z,30.27
2022-12-28T20:25:28.644Z,29.75
2022-12-28T20:29:13.240Z,25.88
2022-12-28T20:32:55.016Z,26.17
2022-12-28T20:36:36.804Z,19.75
2022-12-28T20:40:18.553Z,28.50
2022-12-28T20:44:01.807Z,21.40
2022-12-28T20:47:43.565Z,17.70
2022-12-28T20:51:26.015Z,19.77
2022-12-28T20:55:08.335Z,23.02
2022-12-28T20:58:50.386Z,21.00
2022-12-28T21:02:32.224Z,20.70
2022-12-28T21:06:14.380Z,11.98
2022-12-28T21:09:56.180Z,29.95
2022-12-28T21:13:43.779Z,12.95
2022-12-28T21:17:26.195Z,19.25
2022-12-28T21:21:18.618Z,14.02
2022-12-28T21:25:00.375Z,15.65
2022-12-28T21:28:42.874Z,16.25
2022-12-28T21:32:24.655Z,10.48
2022-12-28T21:36:18.271Z,19.00
2022-12-28T21:40:00.227Z,13.35
2022-12-28T21:43:42.572Z,12.63
2022-12-28T21:47:24.346Z,23.65
2022-12-28T21:51:30.271Z,14.20
2022-12-28T21:55:30.923Z,19.33
2022-12-28T21:59:13.536Z,21.63
2022-12-28T22:03:13.935Z,14.20
2022-12-28T22:06:55.835Z,16.60
2022-12-28T22:10:56.632Z,10.68
2022-12-28T22:14:38.650Z,12.65
2022-12-28T22:18:53.097Z,13.82
2022-12-28T22:22:25.028Z,14.68
2022-12-28T22:26:07.123Z,20.02
2022-12-28T22:29:48.865Z,17.30
2022-12-28T22:33:30.617Z,16.98
2022-12-28T22:37:13.975Z,22.88
2022-12-28T22:40:59.295Z,26.20
2022-12-28T22:44:41.472Z,9.32
2022-12-28T22:48:23.203Z,15.77
2022-12-28T22:52:05.081Z,18.20
2022-12-28T22:55:56.731Z,18.38
2022-12-28T22:59:38.540Z,17.85
2022-12-28T23:03:20.373Z,18.73
2022-12-28T23:07:04.193Z,17.40
2022-12-28T23:11:00.034Z,12.98
2022-12-28T23:15:00.535Z,13.23
2022-12-28T23:19:00.855Z,19.30
2022-12-28T23:23:01.368Z,11.20
2022-12-28T23:27:01.575Z,18.83
2022-12-28T23:30:48.512Z,10.15
2022-12-28T23:34:30.596Z,14.88
2022-12-28T23:38:12.397Z,15.95
2022-12-28T23:41:54.319Z,16.15
2022-12-28T23:45:36.299Z,12.77
2022-12-28T23:49:18.737Z,15.73
2022-12-28T23:53:00.556Z,14.90
2022-12-28T23:56:43.115Z,18.10
